^^
Saratoga-Weather Station Historical Data
Daily Summary for April 6, 2020 Units:  English    Metric   Both
Daily Weekly Monthly Yearly Custom
  High: Low: Average:
Temperature: 71.8 °F 39.2 °F 56.1 °F
Dew Point: 43.9 °F 34.5 °F 38.3 °F
Humidity: 86% 26% 55%
Wind Speed: 11mph 0mph 1.7mph
Wind Gust: 15mph - -
Wind- - SW
Pressure: 30.3 in 30 in -
Precipitation: 0 in    
Historical Graphs
 
 
Tabular Data for April 6, 2020
Time Temperature Dew Point Pressure Wind Wind Speed Wind Gust Humidity Rainfall Rate (Hourly) solar
00:03 49.1 °F 37.4 °F 30 in Calm     64% 0 in 0 W/m2
00:08 49.1 °F 37.4 °F 30 in Calm     64% 0 in 0 W/m2
00:13 48.9 °F 37.8 °F 30 in Calm     65% 0 in 0 W/m2
00:19 48.7 °F 37.9 °F 30 in Calm     66% 0 in 0 W/m2
00:24 48.6 °F 37.8 °F 30 in Calm     66% 0 in 0 W/m2
00:29 48.4 °F 37.6 °F 30 in Calm     66% 0 in 0 W/m2
00:34 48.2 °F 37.8 °F 30 in Calm     67% 0 in 0 W/m2
00:39 47.8 °F 37.4 °F 30 in Calm     67% 0 in 0 W/m2
00:44 47.8 °F 37.8 °F 30 in Calm     68% 0 in 0 W/m2
00:49 47.7 °F 37.6 °F 30.1 in Calm     68% 0 in 0 W/m2
00:54 47.3 °F 37.2 °F 30 in Calm     68% 0 in 0 W/m2
00:59 47.1 °F 37 °F 30.1 in Calm     68% 0 in 0 W/m2
01:04 47.1 °F 37.4 °F 30.1 in Calm     69% 0 in 0 W/m2
01:09 46.9 °F 37.2 °F 30.1 in Calm     69% 0 in 0 W/m2
01:14 46.8 °F 37.2 °F 30.1 in Calm     69% 0 in 0 W/m2
01:19 46.8 °F 37.6 °F 30.1 in Calm     70% 0 in 0 W/m2
01:24 46.4 °F 37.2 °F 30.1 in Calm     70% 0 in 0 W/m2
01:29 46.2 °F 37.4 °F 30.1 in Calm     71% 0 in 0 W/m2
01:34 46 °F 37.2 °F 30.1 in Calm     71% 0 in 0 W/m2
01:39 45.9 °F 37.4 °F 30.1 in Calm     72% 0 in 0 W/m2
01:44 45.9 °F 37.4 °F 30.1 in Calm     72% 0 in 0 W/m2
01:49 45.7 °F 37.2 °F 30.1 in Calm     72% 0 in 0 W/m2
01:54 45.5 °F 37 °F 30.1 in Calm     72% 0 in 0 W/m2
01:59 45.3 °F 37.2 °F 30.1 in Calm     73% 0 in 0 W/m2
02:04 45.1 °F 37 °F 30.1 in Calm     73% 0 in 0 W/m2
02:09 45.1 °F 37 °F 30.1 in Calm     73% 0 in 0 W/m2
02:14 45.1 °F 37.4 °F 30.1 in Calm     74% 0 in 0 W/m2
02:19 45 °F 37.2 °F 30.1 in Calm     74% 0 in 0 W/m2
02:25 45 °F 37.2 °F 30.1 in Calm     74% 0 in 0 W/m2
02:30 45 °F 37.2 °F 30.1 in Calm     74% 0 in 0 W/m2
02:35 45 °F 37.2 °F 30.1 in Calm     74% 0 in 0 W/m2
02:40 44.8 °F 37 °F 30.1 in Calm     74% 0 in 0 W/m2
02:45 45 °F 37.2 °F 30.1 in Calm     74% 0 in 0 W/m2
02:50 45 °F 37.2 °F 30.1 in Calm     74% 0 in 0 W/m2
02:55 44.8 °F 37 °F 30.1 in Calm     74% 0 in 0 W/m2
03:00 44.8 °F 37 °F 30.1 in Calm     74% 0 in 0 W/m2
03:05 44.8 °F 37 °F 30.1 in Calm     74% 0 in 0 W/m2
03:10 44.6 °F 37.2 °F 30.1 in Calm     75% 0 in 0 W/m2
03:15 44.4 °F 36.7 °F 30.1 in Calm     74% 0 in 0 W/m2
03:20 44.2 °F 36.9 °F 30.1 in Calm     75% 0 in 0 W/m2
03:25 44.1 °F 36.7 °F 30.1 in Calm     75% 0 in 0 W/m2
03:30 43.9 °F 36.5 °F 30.1 in Calm     75% 0 in 0 W/m2
03:35 43.9 °F 36.9 °F 30.1 in Calm     76% 0 in 0 W/m2
03:40 43.7 °F 36.7 °F 30.1 in Calm     76% 0 in 0 W/m2
03:45 43.5 °F 36.5 °F 30.1 in Calm     76% 0 in 0 W/m2
03:50 43.3 °F 36.3 °F 30.1 in Calm     76% 0 in 0 W/m2
03:55 43.3 °F 36.7 °F 30.1 in Calm     77% 0 in 0 W/m2
04:00 43.3 °F 36.7 °F 30.1 in Calm     77% 0 in 0 W/m2
04:05 43.2 °F 36.5 °F 30.1 in Calm     77% 0 in 0 W/m2
04:10 43.2 °F 36.5 °F 30.1 in Calm     77% 0 in 0 W/m2
04:16 43 °F 36.7 °F 30.1 in Calm     78% 0 in 0 W/m2
04:21 42.8 °F 36.5 °F 30.1 in Calm     78% 0 in 0 W/m2
04:26 42.8 °F 36.5 °F 30.1 in Calm     78% 0 in 0 W/m2
04:31 42.6 °F 36.3 °F 30.1 in Calm     78% 0 in 0 W/m2
04:36 42.6 °F 36.5 °F 30.1 in Calm     79% 0 in 0 W/m2
04:41 42.4 °F 36.1 °F 30.1 in Calm     78% 0 in 0 W/m2
04:46 42.4 °F 36.1 °F 30.1 in Calm     78% 0 in 0 W/m2
04:51 42.4 °F 36.1 °F 30.1 in Calm     78% 0 in 0 W/m2
04:56 42.3 °F 36.1 °F 30.1 in Calm     79% 0 in 0 W/m2
05:01 42.1 °F 36 °F 30.1 in Calm     79% 0 in 0 W/m2
05:06 41.9 °F 35.8 °F 30.1 in Calm     79% 0 in 0 W/m2
05:11 41.7 °F 36 °F 30.1 in Calm     80% 0 in 0 W/m2
05:16 41.5 °F 35.8 °F 30.1 in Calm     80% 0 in 0 W/m2
05:21 41.5 °F 35.8 °F 30.1 in Calm     80% 0 in 0 W/m2
05:27 41.4 °F 35.6 °F 30.1 in Calm     80% 0 in 0 W/m2
05:32 41.4 °F 36 °F 30.1 in Calm     81% 0 in 0 W/m2
05:37 41.2 °F 35.8 °F 30.1 in Calm     81% 0 in 0 W/m2
05:42 41.2 °F 35.8 °F 30.1 in Calm     81% 0 in 0 W/m2
05:47 40.8 °F 35.4 °F 30.1 in Calm     81% 0 in 0 W/m2
05:52 40.6 °F 35.2 °F 30.1 in Calm     81% 0 in 0 W/m2
05:57 40.6 °F 35.6 °F 30.1 in Calm     82% 0 in 0 W/m2
06:02 40.5 °F 35.4 °F 30.1 in Calm     82% 0 in 0 W/m2
06:07 40.5 °F 35.4 °F 30.1 in Calm     82% 0 in 0 W/m2
06:12 40.3 °F 35.2 °F 30.1 in Calm     82% 0 in 0 W/m2
06:17 40.3 °F 35.2 °F 30.1 in Calm     82% 0 in 0 W/m2
06:22 39.9 °F 35.2 °F 30.1 in Calm     83% 0 in 0 W/m2
06:27 39.9 °F 35.2 °F 30.1 in Calm     83% 0 in 0 W/m2
06:32 39.7 °F 35.1 °F 30.1 in Calm     83% 0 in 0 W/m2
06:37 39.6 °F 34.9 °F 30.1 in Calm     83% 0 in 0 W/m2
06:42 39.6 °F 34.9 °F 30.1 in Calm     83% 0 in 0 W/m2
06:47 39.4 °F 34.9 °F 30.1 in Calm     84% 0 in 0 W/m2
06:52 39.4 °F 34.9 °F 30.1 in Calm     84% 0 in 0 W/m2
06:57 39.4 °F 35.2 °F 30.1 in Calm     85% 0 in 0 W/m2
07:02 39.4 °F 35.2 °F 30.1 in Calm     85% 0 in 5 W/m2
07:07 39.2 °F 35.1 °F 30.1 in Calm     85% 0 in 5 W/m2
07:12 39.2 °F 35.1 °F 30.1 in Calm     85% 0 in 9 W/m2
07:17 39.2 °F 35.4 °F 30.1 in Calm     86% 0 in 11 W/m2
07:22 39.2 °F 35.4 °F 30.1 in Calm     86% 0 in 12 W/m2
07:27 39.4 °F 35.6 °F 30.1 in Calm     86% 0 in 14 W/m2
07:32 39.4 °F 35.6 °F 30.1 in Calm     86% 0 in 18 W/m2
07:37 39.4 °F 35.6 °F 30.1 in Calm     86% 0 in 19 W/m2
07:42 39.4 °F 35.6 °F 30.1 in Calm     86% 0 in 21 W/m2
07:47 39.4 °F 35.2 °F 30.1 in Calm     85% 0 in 23 W/m2
07:52 39.4 °F 35.6 °F 30.1 in Calm     86% 0 in 26 W/m2
07:57 39.6 °F 35.8 °F 30.1 in Calm     86% 0 in 28 W/m2
08:02 39.7 °F 36 °F 30.1 in Calm     86% 0 in 30 W/m2
08:07 39.7 °F 36 °F 30.1 in Calm     86% 0 in 32 W/m2
08:12 40.1 °F 36.3 °F 30.1 in Calm     86% 0 in 134 W/m2
08:17 40.5 °F 36.7 °F 30.1 in Calm     86% 0 in 142 W/m2
08:22 40.8 °F 36.7 °F 30.1 in Calm     85% 0 in 155 W/m2
08:28 41.4 °F 37.2 °F 30.1 in Calm     85% 0 in 167 W/m2
08:33 41.7 °F 37.2 °F 30.1 in Calm     84% 0 in 183 W/m2
08:38 42.8 °F 37.8 °F 30.1 in ENE 2 mph 3 mph 82% 0 in 195 W/m2
08:43 43.9 °F 38.1 °F 30.1 in Calm     80% 0 in 207 W/m2
08:48 44.4 °F 38.3 °F 30.1 in Calm     79% 0 in 218 W/m2
08:53 45 °F 38.1 °F 30.1 in NW 2 mph 2 mph 77% 0 in 229 W/m2
08:58 45.3 °F 38.1 °F 30.1 in NNE 0.9 mph 1 mph 76% 0 in 244 W/m2
09:03 45.9 °F 38.3 °F 30.1 in Calm   1 mph 75% 0 in 255 W/m2
09:08 46.6 °F 39 °F 30.1 in NNE 0.9 mph 2 mph 75% 0 in 269 W/m2
09:13 47.1 °F 39.2 °F 30.1 in Calm     74% 0 in 283 W/m2
09:18 47.7 °F 39.4 °F 30.1 in NNE 2 mph 2 mph 73% 0 in 299 W/m2
09:23 48.6 °F 39.9 °F 30.1 in Calm   1 mph 72% 0 in 311 W/m2
09:28 49.3 °F 40.3 °F 30.1 in Calm   1 mph 71% 0 in 325 W/m2
09:33 50.2 °F 40.5 °F 30.1 in East 2.9 mph 4 mph 69% 0 in 81 W/m2
09:38 51.1 °F 40.8 °F 30.1 in Calm   2 mph 68% 0 in 54 W/m2
09:43 51.6 °F 40.6 °F 30.1 in ENE 2 mph 3 mph 66% 0 in 353 W/m2
09:48 52.3 °F 41 °F 30.1 in East 2 mph 2 mph 65% 0 in 378 W/m2
09:53 53.2 °F 41.4 °F 30.1 in East 2.9 mph 4 mph 64% 0 in 392 W/m2
09:58 54 °F 41.7 °F 30.1 in ESE 2.9 mph 4 mph 63% 0 in 404 W/m2
10:03 54.9 °F 41.7 °F 30.1 in East 2 mph 3 mph 61% 0 in 415 W/m2
10:08 55.4 °F 41.4 °F 30.1 in East 4 mph 4 mph 59% 0 in 429 W/m2
10:13 55.9 °F 41.9 °F 30.1 in ENE 2 mph 4 mph 59% 0 in 439 W/m2
10:18 56.8 °F 42.3 °F 30.1 in ENE 0.9 mph 3 mph 58% 0 in 450 W/m2
10:23 57.7 °F 41.7 °F 30.1 in Calm   3 mph 55% 0 in 462 W/m2
10:28 57.9 °F 41.4 °F 30.1 in Calm   4 mph 54% 0 in 476 W/m2
10:33 58.5 °F 41.9 °F 30.1 in NE 2 mph 4 mph 54% 0 in 482 W/m2
10:38 59.2 °F 42.1 °F 30.1 in East 2.9 mph 4 mph 53% 0 in 494 W/m2
10:43 60.1 °F 41.4 °F 30.1 in West 2.9 mph 4 mph 50% 0 in 503 W/m2
10:48 60.6 °F 40.3 °F 30.1 in ESE 2 mph 6 mph 47% 0 in 515 W/m2
10:53 61.2 °F 41.9 °F 30.1 in NE 4 mph 6 mph 49% 0 in 524 W/m2
10:58 61.2 °F 40.8 °F 30.2 in ENE 2.9 mph 4 mph 47% 0 in 531 W/m2
11:03 61.3 °F 41.5 °F 30.1 in ENE 4 mph 9 mph 48% 0 in 545 W/m2
11:09 61.2 °F 40.3 °F 30.2 in North 4 mph 4 mph 46% 0 in 554 W/m2
11:14 61.9 °F 39.7 °F 30.2 in NW 2 mph 5 mph 44% 0 in 564 W/m2
11:19 62.2 °F 38.8 °F 30.2 in NW 4 mph 7 mph 42% 0 in 573 W/m2
11:24 62.6 °F 38.5 °F 30.2 in NNW 2 mph 7 mph 41% 0 in 580 W/m2
11:29 63 °F 39.6 °F 30.2 in WSW 2 mph 9 mph 42% 0 in 591 W/m2
11:34 63.1 °F 39 °F 30.2 in ENE 2 mph 5 mph 41% 0 in 598 W/m2
11:39 63.9 °F 39 °F 30.2 in SW 2 mph 10 mph 40% 0 in 605 W/m2
11:44 63.9 °F 39 °F 30.2 in West 6 mph 8 mph 40% 0 in 610 W/m2
11:49 63.9 °F 39 °F 30.2 in West 10.1 mph 13 mph 40% 0 in 615 W/m2
11:54 63.7 °F 39.6 °F 30.2 in WNW 8.1 mph 9 mph 41% 0 in 622 W/m2
11:59 64 °F 38.7 °F 30.2 in NE 2 mph 12 mph 39% 0 in 631 W/m2
12:04 64.2 °F 38.7 °F 30.2 in NE 2 mph 6 mph 39% 0 in 636 W/m2
12:09 64.4 °F 39.6 °F 30.2 in NNW 2.9 mph 6 mph 40% 0 in 645 W/m2
12:15 64.8 °F 38.5 °F 30.2 in WNW 4 mph 9 mph 38% 0 in 647 W/m2
12:20 64.9 °F 39.4 °F 30.2 in WSW 2.9 mph 6 mph 39% 0 in 652 W/m2
12:25 64.9 °F 38.7 °F 30.2 in WNW 2.9 mph 9 mph 38% 0 in 659 W/m2
12:30 64.8 °F 38.5 °F 30.2 in ENE 4.9 mph 10 mph 38% 0 in 664 W/m2
12:35 64.8 °F 37.9 °F 30.2 in SSW 4 mph 4 mph 37% 0 in 666 W/m2
12:40 64.9 °F 37.4 °F 30.2 in North 0.9 mph 11 mph 36% 0 in 670 W/m2
12:45 65.5 °F 37.8 °F 30.2 in NE 4.9 mph 5 mph 36% 0 in 679 W/m2
12:50 65.7 °F 37.9 °F 30.1 in NNW 6 mph 11 mph 36% 0 in 679 W/m2
12:55 65.7 °F 37.9 °F 30.1 in NNW 6 mph 15 mph 36% 0 in 675 W/m2
13:00 65.8 °F 38.1 °F 30.1 in North 4 mph 9 mph 36% 0 in 682 W/m2
13:05 66.4 °F 38.7 °F 30.1 in SW 2 mph 8 mph 36% 0 in 689 W/m2
13:10 66.7 °F 39 °F 30.1 in NW 2.9 mph 9 mph 36% 0 in 689 W/m2
13:15 66.9 °F 39.7 °F 30.1 in NNW 2 mph 10 mph 37% 0 in 686 W/m2
13:20 67.5 °F 38.8 °F 30.1 in SSE 2 mph 4 mph 35% 0 in 693 W/m2
13:25 67.6 °F 39 °F 30.1 in NNW 4 mph 10 mph 35% 0 in 693 W/m2
13:30 68 °F 38.7 °F 30.1 in NW 2 mph 4 mph 34% 0 in 691 W/m2
13:35 68 °F 38.7 °F 30.1 in WNW 4.9 mph 7 mph 34% 0 in 693 W/m2
13:40 67.8 °F 38.5 °F 30.1 in West 6 mph 7 mph 34% 0 in 694 W/m2
13:45 68.2 °F 40.3 °F 30.1 in SE 2 mph 4 mph 36% 0 in 693 W/m2
13:50 68.5 °F 38.3 °F 30.1 in WNW 4.9 mph 5 mph 33% 0 in 689 W/m2
13:55 68.7 °F 39.2 °F 30.1 in NW 2.9 mph 9 mph 34% 0 in 691 W/m2
14:00 69.1 °F 38.8 °F 30.1 in NW 4.9 mph 6 mph 33% 0 in 689 W/m2
14:06 69.1 °F 38.8 °F 30.1 in North 4 mph 12 mph 33% 0 in 687 W/m2
14:11 69.1 °F 40.3 °F 30.2 in WNW 2 mph 5 mph 35% 0 in 680 W/m2
14:16 69.4 °F 37.4 °F 30.2 in WNW 10.1 mph 11 mph 31% 0 in 677 W/m2
14:21 69.1 °F 37.9 °F 30.2 in WNW 8.1 mph 8 mph 32% 0 in 677 W/m2
14:26 68.7 °F 37.6 °F 30.2 in NNE 4.9 mph 6 mph 32% 0 in 679 W/m2
14:31 68.9 °F 37.8 °F 30.2 in WNW 6.9 mph 8 mph 32% 0 in 664 W/m2
14:36 69.3 °F 37.4 °F 30.1 in East 2.9 mph 7 mph 31% 0 in 657 W/m2
14:41 69.6 °F 37.6 °F 30.2 in NW 4 mph 15 mph 31% 0 in 657 W/m2
14:46 69.4 °F 38.3 °F 30.2 in West 10.1 mph 10 mph 32% 0 in 650 W/m2
14:51 69.4 °F 38.3 °F 30.2 in SE 2.9 mph 4 mph 32% 0 in 649 W/m2
14:56 69.4 °F 37.4 °F 30.2 in NW 2 mph 9 mph 31% 0 in 635 W/m2
15:01 69.4 °F 37.4 °F 30.2 in SW 4.9 mph 9 mph 31% 0 in 636 W/m2
15:06 70 °F 37.9 °F 30.2 in NW 2.9 mph 11 mph 31% 0 in 633 W/m2
15:11 70 °F 36.3 °F 30.2 in West 6.9 mph 9 mph 29% 0 in 624 W/m2
15:16 69.6 °F 36 °F 30.2 in WSW 11 mph 11 mph 29% 0 in 615 W/m2
15:21 69.6 °F 36.9 °F 30.2 in NNW 0.9 mph 10 mph 30% 0 in 605 W/m2
15:26 70.2 °F 37.2 °F 30.2 in North 2.9 mph 4 mph 30% 0 in 608 W/m2
15:31 70.5 °F 37.6 °F 30.2 in West 2 mph 8 mph 30% 0 in 599 W/m2
15:36 70.3 °F 36.5 °F 30.2 in ENE 2 mph 5 mph 29% 0 in 587 W/m2
15:41 70.3 °F 36.5 °F 30.2 in WNW 2.9 mph 10 mph 29% 0 in 580 W/m2
15:46 70.2 °F 36.5 °F 30.2 in WNW 10.1 mph 10 mph 29% 0 in 573 W/m2
15:51 70 °F 37 °F 30.2 in WNW 2 mph 7 mph 30% 0 in 561 W/m2
15:56 70.3 °F 37.4 °F 30.2 in NNW 2 mph 3 mph 30% 0 in 554 W/m2
16:01 70.5 °F 37.6 °F 30.2 in NNW 2 mph 9 mph 30% 0 in 547 W/m2
16:06 70.9 °F 37.9 °F 30.2 in West 2.9 mph 6 mph 30% 0 in 536 W/m2
16:11 70.9 °F 37 °F 30.2 in East 8.1 mph 9 mph 29% 0 in 527 W/m2
16:16 71.1 °F 38.1 °F 30.2 in Calm   7 mph 30% 0 in 515 W/m2
16:21 71.2 °F 38.3 °F 30.2 in Calm   9 mph 30% 0 in 506 W/m2
16:26 71.2 °F 37.4 °F 30.2 in WNW 6.9 mph 11 mph 29% 0 in 504 W/m2
16:31 71.2 °F 38.3 °F 30.2 in WSW 8.1 mph 12 mph 30% 0 in 492 W/m2
16:36 71.4 °F 36.7 °F 30.2 in WNW 6.9 mph 7 mph 28% 0 in 476 W/m2
16:41 71.1 °F 36.3 °F 30.2 in NW 0.9 mph 4 mph 28% 0 in 466 W/m2
16:46 71.2 °F 36.5 °F 30.2 in ESE 4 mph 6 mph 28% 0 in 459 W/m2
16:51 71.2 °F 36.5 °F 30.2 in NW 4 mph 9 mph 28% 0 in 441 W/m2
16:56 71.2 °F 36.5 °F 30.2 in NW 2 mph 3 mph 28% 0 in 434 W/m2
17:01 71.4 °F 35.8 °F 30.2 in NW 2.9 mph 9 mph 27% 0 in 427 W/m2
17:06 71.4 °F 35.8 °F 30.2 in East 0.9 mph 2 mph 27% 0 in 413 W/m2
17:12 71.6 °F 35.8 °F 30.2 in SW 0.9 mph 4 mph 27% 0 in 404 W/m2
17:17 71.8 °F 35.1 °F 30.2 in SW 8.9 mph 13 mph 26% 0 in 392 W/m2
17:22 71.4 °F 35.8 °F 30.2 in WNW 8.1 mph 10 mph 27% 0 in 381 W/m2
17:27 71.2 °F 34.5 °F 30.2 in WNW 2.9 mph 4 mph 26% 0 in 367 W/m2
17:32 71.2 °F 35.6 °F 30.2 in WNW 4 mph 10 mph 27% 0 in 355 W/m2
17:37 71.4 °F 35.8 °F 30.2 in NW 2 mph 5 mph 27% 0 in 341 W/m2
17:42 71.2 °F 36.5 °F 30.2 in NNW 0.9 mph 3 mph 28% 0 in 329 W/m2
17:47 71.4 °F 36.7 °F 30.2 in WNW 2.9 mph 9 mph 28% 0 in 315 W/m2
17:52 71.2 °F 36.5 °F 30.2 in WSW 0.9 mph 5 mph 28% 0 in 301 W/m2
17:57 71.4 °F 36.7 °F 30.2 in West 4 mph 5 mph 28% 0 in 283 W/m2
18:02 71.2 °F 36.5 °F 30.2 in NW 4.9 mph 7 mph 28% 0 in 276 W/m2
18:07 71.2 °F 36.5 °F 30.2 in NW 2.9 mph 9 mph 28% 0 in 265 W/m2
18:12 71.2 °F 36.5 °F 30.2 in SW 2 mph 4 mph 28% 0 in 250 W/m2
18:17 71.2 °F 36.5 °F 30.2 in NW 4.9 mph 9 mph 28% 0 in 239 W/m2
18:22 71.2 °F 37.4 °F 30.2 in Calm   2 mph 29% 0 in 221 W/m2
18:27 71.2 °F 37.4 °F 30.2 in West 2.9 mph 3 mph 29% 0 in 211 W/m2
18:32 71.2 °F 37.4 °F 30.2 in WSW 2.9 mph 7 mph 29% 0 in 195 W/m2
18:37 71.2 °F 37.4 °F 30.2 in Calm   4 mph 29% 0 in 181 W/m2
18:42 71.2 °F 38.3 °F 30.2 in WSW 2 mph 5 mph 30% 0 in 167 W/m2
18:47 71.1 °F 38.1 °F 30.2 in NW 2 mph 3 mph 30% 0 in 153 W/m2
18:52 70.9 °F 37.9 °F 30.2 in Calm   2 mph 30% 0 in 135 W/m2
18:58 71.1 °F 38.1 °F 30.2 in West 2.9 mph 6 mph 30% 0 in 86 W/m2
19:03 70.7 °F 37.8 °F 30.2 in WNW 0.9 mph 4 mph 30% 0 in 37 W/m2
19:08 70.2 °F 38.1 °F 30.2 in WNW 0.9 mph 4 mph 31% 0 in 97 W/m2
19:13 70 °F 37.9 °F 30.2 in West 2.9 mph 4 mph 31% 0 in 58 W/m2
19:18 69.4 °F 39 °F 30.2 in West 2 mph 6 mph 33% 0 in 32 W/m2
19:23 68.7 °F 38.5 °F 30.2 in WNW 2.9 mph 3 mph 33% 0 in 28 W/m2
19:28 68.2 °F 38.7 °F 30.2 in West 2 mph 2 mph 34% 0 in 39 W/m2
19:33 67.6 °F 39.7 °F 30.2 in WNW 0.9 mph 1 mph 36% 0 in 28 W/m2
19:38 66.9 °F 39 °F 30.2 in WNW 0.9 mph 3 mph 36% 0 in 26 W/m2
19:43 66.6 °F 39.6 °F 30.2 in Calm   2 mph 37% 0 in 21 W/m2
19:48 66 °F 39.7 °F 30.2 in Calm   1 mph 38% 0 in 19 W/m2
19:53 65.5 °F 40.5 °F 30.2 in West 0.9 mph 1 mph 40% 0 in 18 W/m2
19:58 64.8 °F 41.2 °F 30.2 in West 2 mph 2 mph 42% 0 in 12 W/m2
20:03 64 °F 41.2 °F 30.2 in West 0.9 mph 1 mph 43% 0 in 9 W/m2
20:08 63.3 °F 41 °F 30.2 in Calm     44% 0 in 7 W/m2
20:13 62.8 °F 41.2 °F 30.2 in West 0.9 mph 1 mph 45% 0 in 5 W/m2
20:18 62.2 °F 41.2 °F 30.2 in WSW 0.9 mph 2 mph 46% 0 in 0 W/m2
20:23 61.9 °F 40.3 °F 30.2 in WSW 0.9 mph 2 mph 45% 0 in 0 W/m2
20:28 61.7 °F 40.1 °F 30.2 in WSW 2.9 mph 4 mph 45% 0 in 0 W/m2
20:33 61.7 °F 41.2 °F 30.2 in Calm   3 mph 47% 0 in 0 W/m2
20:38 61.5 °F 41.2 °F 30.2 in Calm   1 mph 47% 0 in 0 W/m2
20:43 61.2 °F 41.4 °F 30.2 in Calm   1 mph 48% 0 in 0 W/m2
20:48 60.6 °F 40.8 °F 30.2 in Calm   1 mph 48% 0 in 0 W/m2
20:54 60.3 °F 40.5 °F 30.2 in Calm   1 mph 48% 0 in 0 W/m2
20:59 59.7 °F 41 °F 30.2 in Calm     50% 0 in 0 W/m2
21:04 59.4 °F 41.2 °F 30.2 in Calm     51% 0 in 0 W/m2
21:09 58.6 °F 40.6 °F 30.2 in WNW 0.9 mph 1 mph 51% 0 in 0 W/m2
21:14 58.5 °F 40.5 °F 30.2 in West 2 mph 3 mph 51% 0 in 0 W/m2
21:19 58.5 °F 40.5 °F 30.2 in West 2 mph 2 mph 51% 0 in 0 W/m2
21:24 58.6 °F 40.6 °F 30.2 in WNW 2 mph 3 mph 51% 0 in 0 W/m2
21:29 58.8 °F 40.3 °F 30.2 in West 0.9 mph 3 mph 50% 0 in 0 W/m2
21:34 59.2 °F 40.6 °F 30.2 in WSW 4.9 mph 5 mph 50% 0 in 0 W/m2
21:39 60.1 °F 40.8 °F 30.2 in West 2 mph 4 mph 49% 0 in 0 W/m2
21:44 60.4 °F 40.6 °F 30.2 in West 2.9 mph 7 mph 48% 0 in 0 W/m2
21:49 60.6 °F 40.8 °F 30.2 in West 2 mph 3 mph 48% 0 in 0 W/m2
21:54 60.8 °F 41.5 °F 30.2 in West 2.9 mph 7 mph 49% 0 in 0 W/m2
21:59 61 °F 41.7 °F 30.2 in WNW 2.9 mph 4 mph 49% 0 in 0 W/m2
22:04 61.2 °F 41.4 °F 30.2 in West 2 mph 6 mph 48% 0 in 0 W/m2
22:09 61 °F 41.7 °F 30.2 in WNW 2.9 mph 5 mph 49% 0 in 0 W/m2
22:14 61 °F 41.7 °F 30.2 in West 2.9 mph 7 mph 49% 0 in 0 W/m2
22:19 61 °F 42.3 °F 30.2 in WNW 2 mph 9 mph 50% 0 in 0 W/m2
22:24 61.2 °F 42.4 °F 30.3 in NW 0.9 mph 7 mph 50% 0 in 0 W/m2
22:29 61 °F 42.3 °F 30.3 in WNW 0.9 mph 2 mph 50% 0 in 0 W/m2
22:34 60.4 °F 42.3 °F 30.3 in Calm   7 mph 51% 0 in 0 W/m2
22:39 59.5 °F 41.9 °F 30.3 in SE 2 mph 3 mph 52% 0 in 0 W/m2
22:44 58.6 °F 41.5 °F 30.3 in ESE 2 mph 4 mph 53% 0 in 0 W/m2
22:49 57.9 °F 41.9 °F 30.3 in ESE 2 mph 3 mph 55% 0 in 0 W/m2
22:54 57.4 °F 42.3 °F 30.3 in ESE 0.9 mph 1 mph 57% 0 in 0 W/m2
22:59 56.7 °F 42.1 °F 30.3 in ESE 3 mph 3 mph 58% 0 in 0 W/m2
23:04 56.1 °F 42.4 °F 30.3 in ESE 0.9 mph 2 mph 60% 0 in 0 W/m2
23:09 55.8 °F 43 °F 30.3 in Calm   1 mph 62% 0 in 0 W/m2
23:14 55 °F 42.6 °F 30.3 in ESE 0.9 mph 1 mph 63% 0 in 0 W/m2
23:19 54.7 °F 42.8 °F 30.3 in ESE 2 mph 2 mph 64% 0 in 0 W/m2
23:24 54.3 °F 42.8 °F 30.3 in Calm   1 mph 65% 0 in 0 W/m2
23:29 54.1 °F 43 °F 30.3 in ESE 0.9 mph 2 mph 66% 0 in 0 W/m2
23:34 53.8 °F 43.2 °F 30.3 in Calm   2 mph 67% 0 in 0 W/m2
23:39 53.4 °F 43.2 °F 30.3 in Calm   1 mph 68% 0 in 0 W/m2
23:44 53.2 °F 43.3 °F 30.3 in Calm   2 mph 69% 0 in 0 W/m2
23:49 53.1 °F 43.5 °F 30.3 in Calm   2 mph 70% 0 in 0 W/m2
23:54 52.9 °F 43.7 °F 30.3 in Calm   1 mph 71% 0 in 0 W/m2
23:59 52.7 °F 43.9 °F 30.3 in ESE 0.9 mph 2 mph 72% 0 in 0 W/m2
Juneau County Weather
Compliments of Weather Underground - 2 mb